Terminal Aerodrome Forecast
Issued by NWS Omaha/Valley, NE

Home | Current Version | Previous Version | Text Only | Print | Product List | Glossary On
Versions: 1 2 3 4 5 6 7 8 9 10 11 12 13 14 15 16 17 18 19 20 21 22 23
000
FTUS43 KOAX 281740
TAFLNK
TAF
KLNK 281740Z 2818/2918 09005KT P6SM BKN015
      TEMPO 2819/2822 SCT015 BKN200
     FM290000 09008KT P6SM VCSH OVC020
     FM290300 06010KT P6SM -RA OVC020
     FM290600 04009KT 3SM -RA BR OVC008
     FM291200 06010G18KT 2SM RA BR OVC008=

USA.gov is the U.S. government's official web portal to all federal, state and local government web resources and services.